Latest Weather Observations for Terrey Hills

IDN60801

Issued at 7:32 pm EST Sunday 1 May 2016 (issued every 30 minutes, with the page automatically refreshed every 10 minutes)

About weather observations | Map of weather stations | Latest weather observations for NSW | Other Formats
Station Details ID: 066059 Name: TERREY HILLS AWS Lat: -33.69 Lon: 151.23 Height: 199.0 m
Data from the previous 72 hours. | See also: Recent months at Terrey Hills
Date/Time
EST
Temp
°C
App
Temp
°C
Dew
Point
Rel
Hum
%
Delta-T
°C
Wind Press
QNH
hPa
Press
MSL
hPa
Rain
since 9 am
mm
Dir
 
Spd
km/h
Gust
km/h
Spd
kts
Gust
kts
01/07:30pm 18.9 19.2 14.6 76 2.5 WNW 6 9 3 5 - - 0.0
01/07:00pm 19.8 20.1 14.6 72 3.1 NW 6 11 3 6 - - 0.0
01/06:30pm 20.6 21.3 14.5 68 3.6 NW 4 13 2 7 - - 0.0
01/06:00pm 21.5 21.3 14.6 65 4.1 NNW 9 17 5 9 - - 0.0
01/05:30pm 22.0 21.9 14.9 64 4.2 NW 9 17 5 9 - - 0.0
01/05:00pm 22.6 22.2 15.2 63 4.4 NNW 11 20 6 11 - - 0.0
01/04:30pm 23.4 23.6 15.7 62 4.7 NNW 9 17 5 9 - - 0.0
01/04:00pm 22.9 23.5 16.9 69 3.7 NNW 9 20 5 11 - - 0.0
01/03:30pm 22.9 23.2 17.8 73 3.2 NNW 13 28 7 15 - - 0.0
01/03:00pm 22.8 23.1 17.9 74 3.1 NNW 13 22 7 12 - - 0.0
01/02:30pm 23.2 24.0 18.1 73 3.2 NNW 11 20 6 11 - - 0.0
01/02:00pm 23.2 24.3 18.9 77 2.7 NNW 11 20 6 11 - - 0.0
01/01:30pm 22.5 22.7 18.5 78 2.5 NNW 15 33 8 18 - - 0.0
01/01:00pm 22.1 22.4 18.7 81 2.2 NNW 15 26 8 14 - - 0.0
01/12:30pm 20.1 20.5 18.1 88 1.2 NNW 13 24 7 13 - - 0.0
01/12:00pm 20.1 20.6 18.4 90 1.1 NNW 13 22 7 12 - - 0.0
01/11:30am 19.7 20.1 18.2 91 0.9 NNW 13 22 7 12 - - 0.0
01/11:00am 19.2 19.2 18.2 94 0.6 NNW 15 24 8 13 - - 0.0
01/10:30am 18.9 18.9 18.2 96 0.4 NNW 15 30 8 16 - - 0.0
01/10:00am 18.9 18.9 18.2 96 0.4 NNW 15 24 8 13 - - 0.0
01/09:30am 18.3 18.4 18.3 100 0.0 N 15 22 8 12 - - 0.0
01/09:00am 17.9 18.6 17.9 100 0.0 NNW 11 20 6 11 - - 2.6
01/08:30am 17.9 17.8 17.9 100 0.0 N 15 24 8 13 - - 2.4
01/08:00am 17.9 19.0 17.9 100 0.0 NNW 9 19 5 10 - - 2.2
01/07:30am 17.9 18.6 17.9 100 0.0 NNW 11 20 6 11 - - 1.8
01/07:00am 17.8 18.1 17.8 100 0.0 NW 13 24 7 13 - - 1.6
01/06:30am 17.7 18.2 17.4 98 0.2 NW 11 20 6 11 - - 0.8
01/06:00am 18.8 18.6 16.8 88 1.2 NW 13 22 7 12 - - 0.0
01/05:30am 18.3 18.5 16.8 91 0.9 NNW 11 20 6 11 - - 0.0
01/05:00am 18.2 18.5 17.0 93 0.7 NNW 11 22 6 12 - - 0.0
01/04:30am 18.1 18.4 17.1 94 0.6 NNW 11 19 6 10 - - 0.0
01/04:00am 17.8 18.6 17.2 96 0.4 NW 9 19 5 10 - - 0.0
01/03:30am 17.4 17.7 17.1 98 0.2 NNW 11 20 6 11 - - 0.0
01/03:00am 17.5 17.9 17.2 98 0.2 NNW 11 17 6 9 - - 0.0
01/02:30am 17.5 17.9 17.2 98 0.2 NNW 11 19 6 10 - - 0.0
01/02:00am 17.5 18.2 17.0 97 0.3 NW 9 13 5 7 - - 0.0
01/01:30am 17.8 18.6 17.2 96 0.4 NW 9 15 5 8 - - 0.0
01/01:00am 18.1 18.9 17.3 95 0.5 NNW 9 15 5 8 - - 0.0
01/12:30am 18.3 19.1 17.3 94 0.6 NW 9 13 5 7 - - 0.0
01/12:00am 18.3 19.2 17.5 95 0.5 NW 9 15 5 8 - - 0.0
 
Date/Time
EST
Temp
°C
App
Temp
°C
Dew
Point
Rel
Hum
%
Delta-T
°C
Wind Press
QNH
hPa
Press
MSL
hPa
Rain
since 9 am
mm
Dir
 
Spd
km/h
Gust
km/h
Spd
kts
Gust
kts
30/11:30pm 18.4 19.3 17.6 95 0.5 NW 9 15 5 8 - - 0.0
30/11:00pm 18.5 19.8 17.5 94 0.6 NW 7 17 4 9 - - 0.0
30/10:30pm 19.0 20.0 17.8 93 0.7 NNW 9 15 5 8 - - 0.0
30/10:00pm 19.2 20.3 18.0 93 0.7 NNW 9 13 5 7 - - 0.0
30/09:30pm 19.0 20.5 18.0 94 0.6 NW 7 15 4 8 - - 0.0
30/09:00pm 19.0 20.5 18.0 94 0.6 NW 7 13 4 7 - - 0.0
30/08:30pm 19.5 20.4 18.3 93 0.7 NNW 11 17 6 9 - - 0.0
30/08:00pm 19.5 20.8 18.5 94 0.6 NNW 9 15 5 8 - - 0.0
30/07:30pm 19.7 21.1 18.7 94 0.6 NNW 9 17 5 9 - - 0.0
30/07:00pm 19.8 21.3 18.8 94 0.6 NNW 9 15 5 8 - - 0.0
30/06:30pm 20.1 21.2 18.9 93 0.8 N 11 15 6 8 - - 0.0
30/06:00pm 20.2 21.7 19.0 93 0.8 N 9 13 5 7 - - 0.0
30/05:30pm 20.3 22.0 18.6 90 1.1 N 7 11 4 6 - - 0.0
30/05:00pm 21.0 22.7 18.6 86 1.5 NNW 7 13 4 7 - - 0.0
30/04:30pm 21.8 23.5 18.6 82 2.0 NNW 7 13 4 7 - - 0.0
30/04:00pm 22.6 24.4 18.4 77 2.7 NNW 6 11 3 6 - - 0.0
30/03:30pm 23.1 24.7 18.2 74 3.1 NNW 7 13 4 7 - - 0.0
30/03:00pm 23.4 25.1 18.5 74 3.1 NW 7 17 4 9 - - 0.0
30/02:30pm 22.1 24.3 18.3 79 2.4 NNW 4 11 2 6 - - 0.0
30/02:00pm 21.7 23.4 18.1 80 2.3 NW 6 11 3 6 - - 0.0
30/01:30pm 21.1 21.7 17.7 81 2.1 N 11 19 6 10 - - 0.0
30/01:00pm 21.4 22.9 17.6 79 2.4 NNW 6 13 3 7 - - 0.0
30/12:30pm 21.4 22.2 17.4 78 2.5 NNW 9 19 5 10 - - 0.0
30/12:00pm 20.9 21.5 16.9 78 2.5 NNW 9 17 5 9 - - 0.0
30/11:30am 20.7 20.9 16.7 78 2.4 NNW 11 19 6 10 - - 0.0
30/11:00am 20.7 22.2 18.1 85 1.6 NNW 7 17 4 9 - - 0.0
30/10:30am 20.3 21.6 17.5 84 1.7 NNW 7 13 4 7 - - 0.0
30/10:00am 20.1 20.3 16.7 81 2.1 NNW 11 17 6 9 - - 0.0
30/09:30am 20.4 20.9 16.6 79 2.3 NNW 9 17 5 9 - - 0.0
30/09:00am 19.3 20.2 16.7 85 1.6 NNW 7 11 4 6 - - 0.0
30/08:30am 19.4 21.0 17.0 86 1.5 NW 4 9 2 5 - - 0.0
30/08:00am 18.7 19.8 16.5 87 1.3 NW 6 9 3 5 - - 0.0
30/07:30am 18.3 19.4 16.5 89 1.1 NW 6 7 3 4 - - 0.0
30/07:00am 17.8 18.6 16.3 91 0.9 WNW 7 9 4 5 - - 0.0
30/06:30am 17.7 18.5 16.4 92 0.8 W 7 9 4 5 - - 0.0
30/06:00am 18.3 18.7 16.3 88 1.2 WSW 9 15 5 8 - - 0.0
30/05:30am 18.0 18.6 16.7 92 0.8 W 9 15 5 8 - - 0.0
30/05:00am 17.5 18.6 16.7 95 0.5 W 6 7 3 4 - - 0.0
30/04:30am 17.6 18.7 17.0 96 0.4 WNW 7 11 4 6 - - 0.0
30/04:00am 17.6 18.8 16.8 95 0.5 WNW 6 7 3 4 - - 0.0
30/03:30am 17.5 19.1 16.9 96 0.4 W 4 6 2 3 - - 0.0
30/03:00am 17.9 19.6 17.1 95 0.5 W 4 6 2 3 - - 0.0
30/02:30am 17.9 19.9 16.9 94 0.6 WSW 2 4 1 2 - - 0.0
30/02:00am 18.4 20.4 16.9 91 0.9 WSW 2 4 1 2 - - 0.0
30/01:30am 19.5 19.9 17.3 87 1.4 N 11 15 6 8 - - 0.0
30/01:00am 19.1 19.7 17.6 91 0.9 N 11 17 6 9 - - 0.0
30/12:30am 19.2 19.8 17.7 91 0.9 N 11 15 6 8 - - 0.0
30/12:00am 19.1 20.2 17.9 93 0.7 N 9 11 5 6 - - 0.0
 
Date/Time
EST
Temp
°C
App
Temp
°C
Dew
Point
Rel
Hum
%
Delta-T
°C
Wind Press
QNH
hPa
Press
MSL
hPa
Rain
since 9 am
mm
Dir
 
Spd
km/h
Gust
km/h
Spd
kts
Gust
kts
29/11:30pm 19.6 20.7 17.9 90 1.1 N 9 13 5 7 - - 0.0
29/11:00pm 19.5 20.6 18.0 91 0.9 N 9 13 5 7 - - 0.0
29/10:30pm 19.9 21.0 17.9 88 1.2 N 9 13 5 7 - - 0.0
29/10:00pm 19.9 21.0 17.9 88 1.2 N 9 13 5 7 - - 0.0
29/09:30pm 20.1 21.2 17.9 87 1.4 N 9 15 5 8 - - 0.0
29/09:00pm 20.0 21.1 18.1 89 1.2 N 9 13 5 7 - - 0.0
29/08:30pm 20.1 21.2 17.9 87 1.4 N 9 13 5 7 - - 0.0
29/08:00pm 20.0 20.9 17.6 86 1.5 N 9 13 5 7 - - 0.0
29/07:30pm 20.1 21.2 17.9 87 1.4 N 9 17 5 9 - - 0.0
29/07:00pm 20.0 21.1 18.0 88 1.2 NNE 9 13 5 7 - - 0.0
29/06:30pm 19.9 21.3 17.9 88 1.2 NNE 7 15 4 8 - - 0.0
29/06:00pm 20.1 21.5 17.7 86 1.5 NNE 7 13 4 7 - - 0.0
29/05:30pm 19.9 21.3 17.9 88 1.2 NNE 7 13 4 7 - - 0.0
29/05:00pm 19.9 21.6 18.6 92 0.8 NNE 7 11 4 6 - - 0.0
29/04:30pm 20.2 22.3 18.9 92 0.8 NNE 6 11 3 6 - - 0.0
29/04:00pm 20.7 22.4 18.6 88 1.3 NNE 7 13 4 7 - - 0.0
29/03:30pm 21.3 23.0 18.5 84 1.8 NNE 7 13 4 7 - - 0.0
29/03:00pm 22.6 24.1 16.6 69 3.7 NNE 4 9 2 5 - - 0.0
29/02:30pm 23.0 23.4 15.3 62 4.6 N 7 13 4 7 - - 0.0
29/02:00pm 22.7 23.4 15.5 64 4.3 N 6 11 3 6 - - 0.0
29/01:30pm 23.3 24.3 16.4 65 4.2 N 6 11 3 6 - - 0.0
29/01:00pm 23.5 23.9 15.3 60 5.0 NNW 7 15 4 8 - - 0.0
29/12:30pm 23.2 24.3 16.5 66 4.1 NNW 6 9 3 5 - - 0.0
29/12:00pm 22.8 23.9 16.6 68 3.8 NW 6 11 3 6 - - 0.0
29/11:30am 21.9 22.7 16.4 71 3.4 NNW 7 11 4 6 - - 0.0
29/11:00am 22.0 22.0 14.1 61 4.6 N 7 13 4 7 - - 0.0
29/10:30am 22.5 22.6 13.8 58 5.1 NNW 6 9 3 5 - - 0.0
29/10:00am 23.0 23.9 15.1 61 4.7 N 4 7 2 4 - - 0.0
29/09:30am 21.3 22.9 16.0 72 3.2 W 2 6 1 3 - - 0.0
29/09:00am 21.2 22.9 15.3 69 3.5 CALM 0 4 0 2 - - 0.0
29/08:30am 20.6 22.1 15.8 74 2.9 WNW 2 4 1 2 - - 0.0
29/08:00am 20.5 22.2 15.3 72 3.1 CALM 0 0 0 0 - - 0.0
29/07:30am 18.7 20.2 14.6 77 2.4 CALM 0 0 0 0 - - 0.0
29/07:00am 16.8 18.0 13.9 83 1.7 CALM 0 0 0 0 - - 0.0
29/06:30am 16.2 16.9 14.6 90 0.9 NW 4 4 2 2 - - 0.0
29/06:00am 17.3 17.6 14.4 83 1.7 NNW 6 6 3 3 - - 0.0
29/05:30am 17.3 17.6 14.6 84 1.6 NNW 6 6 3 3 - - 0.0
29/05:00am 17.6 18.1 15.0 85 1.5 NNW 6 7 3 4 - - 0.0
29/04:30am 16.8 17.4 15.3 91 0.9 NW 6 6 3 3 - - 0.0
29/04:00am 16.8 18.6 15.5 92 0.8 CALM 0 0 0 0 - - 0.0
29/03:30am 16.9 18.9 16.1 95 0.5 CALM 0 6 0 3 - - 0.0
29/03:00am 16.7 17.8 15.6 93 0.6 NNW 4 6 2 3 - - 0.0
29/02:30am 17.8 19.0 16.0 89 1.1 N 4 6 2 3 - - 0.0
29/02:00am 17.6 18.9 16.1 91 0.9 N 4 4 2 2 - - 0.0
29/01:30am 17.4 19.2 15.6 89 1.1 CALM 0 0 0 0 - - 0.0
29/01:00am 18.2 18.7 15.1 82 1.8 NW 6 7 3 4 - - 0.0
29/12:30am 18.6 19.4 15.8 84 1.7 NW 6 9 3 5 - - 0.0
29/12:00am 18.4 19.1 16.2 87 1.3 NW 7 11 4 6 - - 0.0
 
Date/Time
EST
Temp
°C
App
Temp
°C
Dew
Point
Rel
Hum
%
Delta-T
°C
Wind Press
QNH
hPa
Press
MSL
hPa
Rain
since 9 am
mm
Dir
 
Spd
km/h
Gust
km/h
Spd
kts
Gust
kts
28/11:30pm 18.8 19.8 16.9 89 1.2 NW 7 11 4 6 - - 0.0
28/11:00pm 18.7 20.1 17.7 94 0.6 NNW 7 13 4 7 - - 0.0
28/10:30pm 18.7 19.8 17.9 95 0.5 N 9 11 5 6 - - 0.0
28/10:00pm 19.1 19.8 17.9 93 0.7 N 11 17 6 9 - - 0.0
28/09:30pm 18.9 20.0 17.9 94 0.6 N 9 15 5 8 - - 0.0
28/09:00pm 19.3 20.1 18.1 93 0.7 NNE 11 17 6 9 - - 0.0
28/08:30pm 19.5 20.2 18.0 91 0.9 NNE 11 17 6 9 - - 0.0
28/08:00pm 19.4 20.2 18.1 92 0.8 NNE 11 19 6 10 - - 0.0

Other Formats:

Comma delimited format used in spreadsheet applications
http://www.bom.gov.au/fwo/IDN60801/IDN60801.94759.axf

JavaScript Object Notation format (JSON) in row-major order
http://www.bom.gov.au/fwo/IDN60801/IDN60801.94759.json